sensor_id;sensor_type;location;lat;lon;timestamp;temperature;humidity
9951;DHT22;24074;49.254;6.702;2022-12-01T00:00:35;6.70;99.90
9951;DHT22;24074;49.254;6.702;2022-12-01T00:03:01;6.70;99.90
9951;DHT22;24074;49.254;6.702;2022-12-01T00:05:26;6.70;99.90
9951;DHT22;24074;49.254;6.702;2022-12-01T00:07:52;6.70;99.90
9951;DHT22;24074;49.254;6.702;2022-12-01T00:10:18;6.70;99.90
9951;DHT22;24074;49.254;6.702;2022-12-01T00:12:58;6.70;99.90
9951;DHT22;24074;49.254;6.702;2022-12-01T00:15:32;6.70;99.90
9951;DHT22;24074;49.254;6.702;2022-12-01T00:18:03;6.70;99.90
9951;DHT22;24074;49.254;6.702;2022-12-01T00:20:32;6.70;99.90
9951;DHT22;24074;49.254;6.702;2022-12-01T00:22:58;6.70;99.90
9951;DHT22;24074;49.254;6.702;2022-12-01T00:25:24;6.70;99.90
9951;DHT22;24074;49.254;6.702;2022-12-01T00:27:51;6.70;99.90
9951;DHT22;24074;49.254;6.702;2022-12-01T00:30:18;6.70;99.90
9951;DHT22;24074;49.254;6.702;2022-12-01T00:32:45;6.70;99.90
9951;DHT22;24074;49.254;6.702;2022-12-01T00:35:11;6.70;99.90
9951;DHT22;24074;49.254;6.702;2022-12-01T00:37:37;6.70;99.90
9951;DHT22;24074;49.254;6.702;2022-12-01T00:40:06;6.70;99.90
9951;DHT22;24074;49.254;6.702;2022-12-01T00:42:31;6.70;99.90
9951;DHT22;24074;49.254;6.702;2022-12-01T00:44:57;6.60;99.90
9951;DHT22;24074;49.254;6.702;2022-12-01T00:47:23;6.70;99.90
9951;DHT22;24074;49.254;6.702;2022-12-01T00:49:49;6.60;99.90
9951;DHT22;24074;49.254;6.702;2022-12-01T00:52:16;6.60;99.90
9951;DHT22;24074;49.254;6.702;2022-12-01T00:54:42;6.60;99.90
9951;DHT22;24074;49.254;6.702;2022-12-01T00:57:08;6.60;99.90
9951;DHT22;24074;49.254;6.702;2022-12-01T00:59:34;6.60;99.90
9951;DHT22;24074;49.254;6.702;2022-12-01T01:02:04;6.60;99.90
9951;DHT22;24074;49.254;6.702;2022-12-01T01:04:31;6.60;99.90
9951;DHT22;24074;49.254;6.702;2022-12-01T01:06:57;6.60;99.90
9951;DHT22;24074;49.254;6.702;2022-12-01T01:09:23;6.60;99.90
9951;DHT22;24074;49.254;6.702;2022-12-01T01:11:48;6.60;99.90
9951;DHT22;24074;49.254;6.702;2022-12-01T01:14:14;6.60;99.90
9951;DHT22;24074;49.254;6.702;2022-12-01T01:16:40;6.60;99.90
9951;DHT22;24074;49.254;6.702;2022-12-01T01:19:05;6.60;99.90
9951;DHT22;24074;49.254;6.702;2022-12-01T01:21:31;6.60;99.90
9951;DHT22;24074;49.254;6.702;2022-12-01T01:23:56;6.60;99.90
9951;DHT22;24074;49.254;6.702;2022-12-01T01:26:30;6.60;99.90
9951;DHT22;24074;49.254;6.702;2022-12-01T01:28:58;6.60;99.90
9951;DHT22;24074;49.254;6.702;2022-12-01T01:31:27;6.60;99.90
9951;DHT22;24074;49.254;6.702;2022-12-01T01:33:54;6.60;99.90
9951;DHT22;24074;49.254;6.702;2022-12-01T01:36:20;6.60;99.90
9951;DHT22;24074;49.254;6.702;2022-12-01T01:38:47;6.60;99.90
9951;DHT22;24074;49.254;6.702;2022-12-01T01:41:13;6.60;99.90
9951;DHT22;24074;49.254;6.702;2022-12-01T01:46:18;6.70;99.90
9951;DHT22;24074;49.254;6.702;2022-12-01T01:48:50;6.70;99.90
9951;DHT22;24074;49.254;6.702;2022-12-01T01:51:28;6.70;99.90
9951;DHT22;24074;49.254;6.702;2022-12-01T01:53:59;6.70;99.90
9951;DHT22;24074;49.254;6.702;2022-12-01T01:56:27;6.70;99.90
9951;DHT22;24074;49.254;6.702;2022-12-01T01:58:54;6.80;99.90
9951;DHT22;24074;49.254;6.702;2022-12-01T02:01:20;6.70;99.90
9951;DHT22;24074;49.254;6.702;2022-12-01T02:03:59;6.70;99.90
9951;DHT22;24074;49.254;6.702;2022-12-01T02:06:25;6.80;99.90
9951;DHT22;24074;49.254;6.702;2022-12-01T02:08:51;6.80;99.90
9951;DHT22;24074;49.254;6.702;2022-12-01T02:11:37;6.80;99.90
9951;DHT22;24074;49.254;6.702;2022-12-01T02:14:24;6.80;99.90
9951;DHT22;24074;49.254;6.702;2022-12-01T02:17:04;6.80;99.90
9951;DHT22;24074;49.254;6.702;2022-12-01T02:31:04;6.80;99.90
9951;DHT22;24074;49.254;6.702;2022-12-01T02:33:53;6.80;99.90
9951;DHT22;24074;49.254;6.702;2022-12-01T02:36:32;6.80;99.90
9951;DHT22;24074;49.254;6.702;2022-12-01T02:45:30;6.90;99.90
9951;DHT22;24074;49.254;6.702;2022-12-01T02:48:00;6.90;99.90
9951;DHT22;24074;49.254;6.702;2022-12-01T02:50:28;6.90;99.90
9951;DHT22;24074;49.254;6.702;2022-12-01T02:52:56;6.90;99.90
9951;DHT22;24074;49.254;6.702;2022-12-01T02:55:21;6.90;99.90
9951;DHT22;24074;49.254;6.702;2022-12-01T02:57:47;6.90;99.90
9951;DHT22;24074;49.254;6.702;2022-12-01T03:00:13;6.80;99.90
9951;DHT22;24074;49.254;6.702;2022-12-01T03:06:07;6.80;99.90
9951;DHT22;24074;49.254;6.702;2022-12-01T03:11:11;6.80;99.90
9951;DHT22;24074;49.254;6.702;2022-12-01T03:14:28;6.80;99.90
9951;DHT22;24074;49.254;6.702;2022-12-01T03:16:58;6.80;99.90
9951;DHT22;24074;49.254;6.702;2022-12-01T03:19:28;6.80;99.90
9951;DHT22;24074;49.254;6.702;2022-12-01T03:24:37;6.80;99.90
9951;DHT22;24074;49.254;6.702;2022-12-01T03:27:05;6.80;99.90
9951;DHT22;24074;49.254;6.702;2022-12-01T03:29:38;6.80;99.90
9951;DHT22;24074;49.254;6.702;2022-12-01T03:32:19;6.80;99.90
9951;DHT22;24074;49.254;6.702;2022-12-01T03:35:31;6.70;99.90
9951;DHT22;24074;49.254;6.702;2022-12-01T03:37:43;6.70;99.90
9951;DHT22;24074;49.254;6.702;2022-12-01T03:40:14;6.70;99.90
9951;DHT22;24074;49.254;6.702;2022-12-01T03:42:48;6.70;99.90
9951;DHT22;24074;49.254;6.702;2022-12-01T03:45:25;6.60;99.90
9951;DHT22;24074;49.254;6.702;2022-12-01T03:47:52;6.60;99.90
9951;DHT22;24074;49.254;6.702;2022-12-01T03:50:18;6.60;99.90
9951;DHT22;24074;49.254;6.702;2022-12-01T03:52:57;6.50;99.90
9951;DHT22;24074;49.254;6.702;2022-12-01T03:55:29;6.60;99.90
9951;DHT22;24074;49.254;6.702;2022-12-01T03:58:41;6.60;99.90
9951;DHT22;24074;49.254;6.702;2022-12-01T04:00:47;6.60;99.90
9951;DHT22;24074;49.254;6.702;2022-12-01T04:03:19;6.60;99.90
9951;DHT22;24074;49.254;6.702;2022-12-01T04:05:46;6.60;99.90
9951;DHT22;24074;49.254;6.702;2022-12-01T04:08:12;6.60;99.90
9951;DHT22;24074;49.254;6.702;2022-12-01T04:10:38;6.50;99.90
9951;DHT22;24074;49.254;6.702;2022-12-01T04:13:03;6.60;99.90
9951;DHT22;24074;49.254;6.702;2022-12-01T04:15:29;6.50;99.90
9951;DHT22;24074;49.254;6.702;2022-12-01T04:17:54;6.60;99.90
9951;DHT22;24074;49.254;6.702;2022-12-01T04:20:20;6.60;99.90
9951;DHT22;24074;49.254;6.702;2022-12-01T04:22:47;6.50;99.90
9951;DHT22;24074;49.254;6.702;2022-12-01T04:25:13;6.50;99.90
9951;DHT22;24074;49.254;6.702;2022-12-01T04:27:38;6.50;99.90
9951;DHT22;24074;49.254;6.702;2022-12-01T04:30:05;6.40;99.90
9951;DHT22;24074;49.254;6.702;2022-12-01T04:32:40;6.40;99.90
9951;DHT22;24074;49.254;6.702;2022-12-01T04:35:07;6.30;99.90
9951;DHT22;24074;49.254;6.702;2022-12-01T04:37:33;6.30;99.90
9951;DHT22;24074;49.254;6.702;2022-12-01T04:39:58;6.30;99.90
9951;DHT22;24074;49.254;6.702;2022-12-01T04:42:24;6.20;99.90
9951;DHT22;24074;49.254;6.702;2022-12-01T04:44:49;6.20;99.90
9951;DHT22;24074;49.254;6.702;2022-12-01T04:47:15;6.20;99.90
9951;DHT22;24074;49.254;6.702;2022-12-01T04:49:41;6.20;99.90
9951;DHT22;24074;49.254;6.702;2022-12-01T04:52:06;6.20;99.90
9951;DHT22;24074;49.254;6.702;2022-12-01T04:54:32;6.30;99.90
9951;DHT22;24074;49.254;6.702;2022-12-01T04:56:57;6.30;99.90
9951;DHT22;24074;49.254;6.702;2022-12-01T04:59:23;6.20;99.90
9951;DHT22;24074;49.254;6.702;2022-12-01T05:01:48;6.30;99.90
9951;DHT22;24074;49.254;6.702;2022-12-01T05:04:14;6.20;99.90
9951;DHT22;24074;49.254;6.702;2022-12-01T05:06:40;6.30;99.90
9951;DHT22;24074;49.254;6.702;2022-12-01T05:09:06;6.30;99.90
9951;DHT22;24074;49.254;6.702;2022-12-01T05:11:32;6.30;99.90
9951;DHT22;24074;49.254;6.702;2022-12-01T05:13:58;6.30;99.90
9951;DHT22;24074;49.254;6.702;2022-12-01T05:16:29;6.30;99.90
9951;DHT22;24074;49.254;6.702;2022-12-01T05:18:58;6.30;99.90
9951;DHT22;24074;49.254;6.702;2022-12-01T05:21:43;6.20;99.90
9951;DHT22;24074;49.254;6.702;2022-12-01T05:24:10;6.20;99.90
9951;DHT22;24074;49.254;6.702;2022-12-01T05:26:37;6.20;99.90
9951;DHT22;24074;49.254;6.702;2022-12-01T05:29:03;6.20;99.90
9951;DHT22;24074;49.254;6.702;2022-12-01T05:31:29;6.30;99.90
9951;DHT22;24074;49.254;6.702;2022-12-01T05:33:54;6.20;99.90
9951;DHT22;24074;49.254;6.702;2022-12-01T05:36:20;6.20;99.90
9951;DHT22;24074;49.254;6.702;2022-12-01T05:38:46;6.20;99.90
9951;DHT22;24074;49.254;6.702;2022-12-01T05:41:11;6.20;99.90
9951;DHT22;24074;49.254;6.702;2022-12-01T05:43:37;6.30;99.90
9951;DHT22;24074;49.254;6.702;2022-12-01T05:46:02;6.30;99.90
9951;DHT22;24074;49.254;6.702;2022-12-01T05:48:28;6.30;99.90
9951;DHT22;24074;49.254;6.702;2022-12-01T05:50:54;6.40;99.90
9951;DHT22;24074;49.254;6.702;2022-12-01T05:53:19;6.30;99.90
9951;DHT22;24074;49.254;6.702;2022-12-01T05:55:45;6.30;99.90
9951;DHT22;24074;49.254;6.702;2022-12-01T05:58:11;6.30;99.90
9951;DHT22;24074;49.254;6.702;2022-12-01T06:00:37;6.30;99.90
9951;DHT22;24074;49.254;6.702;2022-12-01T06:03:03;6.30;99.90
9951;DHT22;24074;49.254;6.702;2022-12-01T06:05:29;6.30;99.90
9951;DHT22;24074;49.254;6.702;2022-12-01T06:07:55;6.30;99.90
9951;DHT22;24074;49.254;6.702;2022-12-01T06:10:21;6.40;99.90
9951;DHT22;24074;49.254;6.702;2022-12-01T06:12:46;6.30;99.90
9951;DHT22;24074;49.254;6.702;2022-12-01T06:15:12;6.30;99.90
9951;DHT22;24074;49.254;6.702;2022-12-01T06:17:38;6.30;99.90
9951;DHT22;24074;49.254;6.702;2022-12-01T06:20:05;6.20;99.90
9951;DHT22;24074;49.254;6.702;2022-12-01T06:22:31;6.20;99.90
9951;DHT22;24074;49.254;6.702;2022-12-01T06:24:56;6.20;99.90
9951;DHT22;24074;49.254;6.702;2022-12-01T06:27:22;6.30;99.90
9951;DHT22;24074;49.254;6.702;2022-12-01T06:29:47;6.20;99.90
9951;DHT22;24074;49.254;6.702;2022-12-01T06:32:14;6.20;99.90
9951;DHT22;24074;49.254;6.702;2022-12-01T06:34:40;6.20;99.90
9951;DHT22;24074;49.254;6.702;2022-12-01T06:37:06;6.20;99.90
9951;DHT22;24074;49.254;6.702;2022-12-01T06:39:31;6.20;99.90
9951;DHT22;24074;49.254;6.702;2022-12-01T06:41:57;6.10;99.90
9951;DHT22;24074;49.254;6.702;2022-12-01T06:44:22;6.10;99.90
9951;DHT22;24074;49.254;6.702;2022-12-01T06:46:48;6.10;99.90
9951;DHT22;24074;49.254;6.702;2022-12-01T06:49:17;6.10;99.90
9951;DHT22;24074;49.254;6.702;2022-12-01T06:51:43;6.00;99.90
9951;DHT22;24074;49.254;6.702;2022-12-01T06:54:11;6.10;99.90
9951;DHT22;24074;49.254;6.702;2022-12-01T06:56:37;6.10;99.90
9951;DHT22;24074;49.254;6.702;2022-12-01T06:59:02;6.10;99.90
9951;DHT22;24074;49.254;6.702;2022-12-01T07:01:28;6.10;99.90
9951;DHT22;24074;49.254;6.702;2022-12-01T07:03:54;6.10;99.90
9951;DHT22;24074;49.254;6.702;2022-12-01T07:06:19;6.20;99.90
9951;DHT22;24074;49.254;6.702;2022-12-01T07:08:45;6.20;99.90
9951;DHT22;24074;49.254;6.702;2022-12-01T07:11:13;6.20;99.90
9951;DHT22;24074;49.254;6.702;2022-12-01T07:13:39;6.20;99.90
9951;DHT22;24074;49.254;6.702;2022-12-01T07:16:07;6.20;99.90
9951;DHT22;24074;49.254;6.702;2022-12-01T07:18:33;6.20;99.90
9951;DHT22;24074;49.254;6.702;2022-12-01T07:21:00;6.10;99.90
9951;DHT22;24074;49.254;6.702;2022-12-01T07:23:26;6.10;99.90
9951;DHT22;24074;49.254;6.702;2022-12-01T07:26:04;6.20;99.90
9951;DHT22;24074;49.254;6.702;2022-12-01T07:28:30;6.20;99.90
9951;DHT22;24074;49.254;6.702;2022-12-01T07:31:02;6.20;99.90
9951;DHT22;24074;49.254;6.702;2022-12-01T07:33:28;6.20;99.90
9951;DHT22;24074;49.254;6.702;2022-12-01T07:35:54;6.20;99.90
9951;DHT22;24074;49.254;6.702;2022-12-01T07:38:20;6.20;99.90
9951;DHT22;24074;49.254;6.702;2022-12-01T07:40:45;6.10;99.90
9951;DHT22;24074;49.254;6.702;2022-12-01T07:43:11;6.20;99.90
9951;DHT22;24074;49.254;6.702;2022-12-01T07:45:37;6.10;99.90
9951;DHT22;24074;49.254;6.702;2022-12-01T07:48:02;6.10;99.90
9951;DHT22;24074;49.254;6.702;2022-12-01T07:50:28;6.10;99.90
9951;DHT22;24074;49.254;6.702;2022-12-01T07:52:54;6.10;99.90
9951;DHT22;24074;49.254;6.702;2022-12-01T07:55:19;6.10;99.90
9951;DHT22;24074;49.254;6.702;2022-12-01T07:57:45;6.10;99.90
9951;DHT22;24074;49.254;6.702;2022-12-01T08:00:11;6.10;99.90
9951;DHT22;24074;49.254;6.702;2022-12-01T08:02:36;6.10;99.90
9951;DHT22;24074;49.254;6.702;2022-12-01T08:05:02;6.10;99.90
9951;DHT22;24074;49.254;6.702;2022-12-01T08:07:28;6.10;99.90
9951;DHT22;24074;49.254;6.702;2022-12-01T08:09:53;6.10;99.90
9951;DHT22;24074;49.254;6.702;2022-12-01T08:12:19;6.10;99.90
9951;DHT22;24074;49.254;6.702;2022-12-01T08:14:44;6.10;99.90
9951;DHT22;24074;49.254;6.702;2022-12-01T08:17:10;6.10;99.90
9951;DHT22;24074;49.254;6.702;2022-12-01T08:19:35;6.10;99.90
9951;DHT22;24074;49.254;6.702;2022-12-01T08:22:01;6.10;99.90
9951;DHT22;24074;49.254;6.702;2022-12-01T08:24:27;6.20;99.90
9951;DHT22;24074;49.254;6.702;2022-12-01T08:26:52;6.10;99.90
9951;DHT22;24074;49.254;6.702;2022-12-01T08:29:18;6.10;99.90
9951;DHT22;24074;49.254;6.702;2022-12-01T08:31:44;6.20;99.90
9951;DHT22;24074;49.254;6.702;2022-12-01T08:34:09;6.10;99.90
9951;DHT22;24074;49.254;6.702;2022-12-01T08:36:35;6.10;99.90
9951;DHT22;24074;49.254;6.702;2022-12-01T08:39:01;6.00;99.90
9951;DHT22;24074;49.254;6.702;2022-12-01T08:41:26;6.00;99.90
9951;DHT22;24074;49.254;6.702;2022-12-01T08:43:53;6.00;99.90
9951;DHT22;24074;49.254;6.702;2022-12-01T08:46:19;5.90;99.90
9951;DHT22;24074;49.254;6.702;2022-12-01T08:48:45;5.90;99.90
9951;DHT22;24074;49.254;6.702;2022-12-01T08:51:13;5.80;99.90
9951;DHT22;24074;49.254;6.702;2022-12-01T08:53:41;5.70;99.90
9951;DHT22;24074;49.254;6.702;2022-12-01T08:56:18;5.70;99.90
9951;DHT22;24074;49.254;6.702;2022-12-01T08:58:44;5.60;99.90
9951;DHT22;24074;49.254;6.702;2022-12-01T09:01:12;5.70;99.90
9951;DHT22;24074;49.254;6.702;2022-12-01T09:03:39;5.60;99.90
9951;DHT22;24074;49.254;6.702;2022-12-01T09:06:07;5.50;99.90
9951;DHT22;24074;49.254;6.702;2022-12-01T09:08:35;5.50;99.90
9951;DHT22;24074;49.254;6.702;2022-12-01T09:11:03;5.60;99.90
9951;DHT22;24074;49.254;6.702;2022-12-01T09:13:30;5.60;99.90
9951;DHT22;24074;49.254;6.702;2022-12-01T09:16:01;5.60;99.90
9951;DHT22;24074;49.254;6.702;2022-12-01T09:18:27;5.60;99.90
9951;DHT22;24074;49.254;6.702;2022-12-01T09:20:54;5.60;99.90
9951;DHT22;24074;49.254;6.702;2022-12-01T09:23:20;5.60;99.90
9951;DHT22;24074;49.254;6.702;2022-12-01T09:25:47;5.50;99.90
9951;DHT22;24074;49.254;6.702;2022-12-01T09:28:13;5.50;99.90
9951;DHT22;24074;49.254;6.702;2022-12-01T09:30:39;5.50;99.90
9951;DHT22;24074;49.254;6.702;2022-12-01T09:33:05;5.40;99.90
9951;DHT22;24074;49.254;6.702;2022-12-01T09:35:34;5.40;99.90
9951;DHT22;24074;49.254;6.702;2022-12-01T09:38:02;5.40;99.90
9951;DHT22;24074;49.254;6.702;2022-12-01T09:40:34;5.40;99.90
9951;DHT22;24074;49.254;6.702;2022-12-01T09:43:03;5.40;99.90
9951;DHT22;24074;49.254;6.702;2022-12-01T09:45:34;5.40;99.90
9951;DHT22;24074;49.254;6.702;2022-12-01T09:48:02;5.40;99.90
9951;DHT22;24074;49.254;6.702;2022-12-01T09:50:30;5.50;99.90
9951;DHT22;24074;49.254;6.702;2022-12-01T09:52:59;5.40;99.90
9951;DHT22;24074;49.254;6.702;2022-12-01T09:55:27;5.40;99.90
9951;DHT22;24074;49.254;6.702;2022-12-01T09:58:00;5.40;99.90
9951;DHT22;24074;49.254;6.702;2022-12-01T10:00:30;5.30;99.90
9951;DHT22;24074;49.254;6.702;2022-12-01T10:03:02;5.40;99.90
9951;DHT22;24074;49.254;6.702;2022-12-01T10:05:52;5.40;99.90
9951;DHT22;24074;49.254;6.702;2022-12-01T10:08:22;5.30;99.90
9951;DHT22;24074;49.254;6.702;2022-12-01T10:10:50;5.30;99.90
9951;DHT22;24074;49.254;6.702;2022-12-01T10:13:18;5.20;99.90
9951;DHT22;24074;49.254;6.702;2022-12-01T10:16:02;5.20;99.90
9951;DHT22;24074;49.254;6.702;2022-12-01T10:19:03;5.20;99.90
9951;DHT22;24074;49.254;6.702;2022-12-01T10:35:28;5.20;99.90
9951;DHT22;24074;49.254;6.702;2022-12-01T10:37:59;5.20;99.90
9951;DHT22;24074;49.254;6.702;2022-12-01T10:40:26;5.20;99.90
9951;DHT22;24074;49.254;6.702;2022-12-01T10:42:52;5.20;99.90
9951;DHT22;24074;49.254;6.702;2022-12-01T10:45:42;5.20;99.90
9951;DHT22;24074;49.254;6.702;2022-12-01T10:48:15;5.20;99.90
9951;DHT22;24074;49.254;6.702;2022-12-01T10:53:28;5.20;99.90
9951;DHT22;24074;49.254;6.702;2022-12-01T10:56:19;5.20;99.90
9951;DHT22;24074;49.254;6.702;2022-12-01T10:58:54;5.20;99.90
9951;DHT22;24074;49.254;6.702;2022-12-01T11:03:51;5.10;99.90
9951;DHT22;24074;49.254;6.702;2022-12-01T11:06:22;5.10;99.90
9951;DHT22;24074;49.254;6.702;2022-12-01T11:09:03;5.10;99.90
9951;DHT22;24074;49.254;6.702;2022-12-01T11:11:39;5.00;99.90
9951;DHT22;24074;49.254;6.702;2022-12-01T11:14:26;5.00;99.90
9951;DHT22;24074;49.254;6.702;2022-12-01T11:16:52;5.00;99.90
9951;DHT22;24074;49.254;6.702;2022-12-01T11:19:31;5.00;99.90
9951;DHT22;24074;49.254;6.702;2022-12-01T11:22:00;5.00;99.90
9951;DHT22;24074;49.254;6.702;2022-12-01T11:24:42;5.00;99.90
9951;DHT22;24074;49.254;6.702;2022-12-01T11:27:15;5.00;99.90
9951;DHT22;24074;49.254;6.702;2022-12-01T11:29:42;5.00;99.90
9951;DHT22;24074;49.254;6.702;2022-12-01T11:32:24;5.00;99.90
9951;DHT22;24074;49.254;6.702;2022-12-01T11:35:20;5.00;99.90
9951;DHT22;24074;49.254;6.702;2022-12-01T11:37:50;5.00;99.90
9951;DHT22;24074;49.254;6.702;2022-12-01T11:40:21;4.90;99.90
9951;DHT22;24074;49.254;6.702;2022-12-01T11:43:02;4.90;99.90
9951;DHT22;24074;49.254;6.702;2022-12-01T11:45:33;4.90;99.90
9951;DHT22;24074;49.254;6.702;2022-12-01T11:48:05;5.00;99.90
9951;DHT22;24074;49.254;6.702;2022-12-01T11:50:34;4.90;99.90
9951;DHT22;24074;49.254;6.702;2022-12-01T11:53:00;4.90;99.90
9951;DHT22;24074;49.254;6.702;2022-12-01T11:55:30;5.00;99.90
9951;DHT22;24074;49.254;6.702;2022-12-01T11:58:01;5.00;99.90
9951;DHT22;24074;49.254;6.702;2022-12-01T12:00:34;5.00;99.90
9951;DHT22;24074;49.254;6.702;2022-12-01T12:03:27;4.90;99.90
9951;DHT22;24074;49.254;6.702;2022-12-01T12:06:09;4.90;99.90
9951;DHT22;24074;49.254;6.702;2022-12-01T12:14:03;4.80;99.90
9951;DHT22;24074;49.254;6.702;2022-12-01T12:17:07;4.90;99.90
9951;DHT22;24074;49.254;6.702;2022-12-01T12:23:16;4.90;99.90
9951;DHT22;24074;49.254;6.702;2022-12-01T12:26:23;4.90;99.90
9951;DHT22;24074;49.254;6.702;2022-12-01T12:37:21;5.00;99.90
9951;DHT22;24074;49.254;6.702;2022-12-01T12:45:58;4.90;99.90
9951;DHT22;24074;49.254;6.702;2022-12-01T12:51:24;5.10;99.90
9951;DHT22;24074;49.254;6.702;2022-12-01T12:54:01;5.20;99.90
9951;DHT22;24074;49.254;6.702;2022-12-01T12:56:30;5.20;99.90
9951;DHT22;24074;49.254;6.702;2022-12-01T12:59:02;5.20;99.90
9951;DHT22;24074;49.254;6.702;2022-12-01T13:01:35;5.20;99.90
9951;DHT22;24074;49.254;6.702;2022-12-01T13:04:38;5.20;99.90
9951;DHT22;24074;49.254;6.702;2022-12-01T13:07:05;5.20;99.90
9951;DHT22;24074;49.254;6.702;2022-12-01T13:09:37;5.20;99.90
9951;DHT22;24074;49.254;6.702;2022-12-01T13:12:28;5.30;99.90
9951;DHT22;24074;49.254;6.702;2022-12-01T13:15:00;5.20;99.90
9951;DHT22;24074;49.254;6.702;2022-12-01T13:17:34;5.30;99.90
9951;DHT22;24074;49.254;6.702;2022-12-01T13:20:00;5.30;99.90
9951;DHT22;24074;49.254;6.702;2022-12-01T13:22:32;5.30;99.90
9951;DHT22;24074;49.254;6.702;2022-12-01T13:24:58;5.30;99.90
9951;DHT22;24074;49.254;6.702;2022-12-01T13:27:26;5.30;99.90
9951;DHT22;24074;49.254;6.702;2022-12-01T13:29:53;5.40;99.90
9951;DHT22;24074;49.254;6.702;2022-12-01T13:32:37;5.50;99.90
9951;DHT22;24074;49.254;6.702;2022-12-01T13:35:24;5.50;99.90
9951;DHT22;24074;49.254;6.702;2022-12-01T13:37:51;5.40;99.90
9951;DHT22;24074;49.254;6.702;2022-12-01T13:40:29;5.40;99.90
9951;DHT22;24074;49.254;6.702;2022-12-01T13:43:05;5.40;99.90
9951;DHT22;24074;49.254;6.702;2022-12-01T13:45:38;5.50;99.90
9951;DHT22;24074;49.254;6.702;2022-12-01T13:48:05;5.50;99.90
9951;DHT22;24074;49.254;6.702;2022-12-01T13:50:55;5.50;99.90
9951;DHT22;24074;49.254;6.702;2022-12-01T13:53:35;5.60;99.90
9951;DHT22;24074;49.254;6.702;2022-12-01T13:56:23;5.70;99.90
9951;DHT22;24074;49.254;6.702;2022-12-01T13:58:52;5.70;99.90
9951;DHT22;24074;49.254;6.702;2022-12-01T14:06:45;5.70;99.90
9951;DHT22;24074;49.254;6.702;2022-12-01T14:12:05;5.70;99.90
9951;DHT22;24074;49.254;6.702;2022-12-01T14:14:41;5.70;99.90
9951;DHT22;24074;49.254;6.702;2022-12-01T14:17:27;5.80;99.90
9951;DHT22;24074;49.254;6.702;2022-12-01T14:19:54;5.70;99.90
9951;DHT22;24074;49.254;6.702;2022-12-01T14:22:45;5.80;99.90
9951;DHT22;24074;49.254;6.702;2022-12-01T14:27:49;5.80;99.90
9951;DHT22;24074;49.254;6.702;2022-12-01T14:36:41;5.60;99.90
9951;DHT22;24074;49.254;6.702;2022-12-01T14:42:02;5.50;99.90
9951;DHT22;24074;49.254;6.702;2022-12-01T14:47:26;5.30;99.90
9951;DHT22;24074;49.254;6.702;2022-12-01T14:52:44;5.20;99.90
9951;DHT22;24074;49.254;6.702;2022-12-01T14:55:40;5.30;99.90
9951;DHT22;24074;49.254;6.702;2022-12-01T14:58:22;5.20;99.90
9951;DHT22;24074;49.254;6.702;2022-12-01T15:01:00;5.20;99.90
9951;DHT22;24074;49.254;6.702;2022-12-01T15:03:31;5.20;99.90
9951;DHT22;24074;49.254;6.702;2022-12-01T15:05:57;5.20;99.90
9951;DHT22;24074;49.254;6.702;2022-12-01T15:08:25;5.10;99.90
9951;DHT22;24074;49.254;6.702;2022-12-01T15:10:54;5.20;99.90
9951;DHT22;24074;49.254;6.702;2022-12-01T15:15:54;5.10;99.90
9951;DHT22;24074;49.254;6.702;2022-12-01T15:18:21;5.20;99.90
9951;DHT22;24074;49.254;6.702;2022-12-01T15:20:48;5.10;99.90
9951;DHT22;24074;49.254;6.702;2022-12-01T15:23:15;5.10;99.90
9951;DHT22;24074;49.254;6.702;2022-12-01T15:25:45;5.10;99.90
9951;DHT22;24074;49.254;6.702;2022-12-01T15:30:36;5.10;99.90
9951;DHT22;24074;49.254;6.702;2022-12-01T15:33:03;5.10;99.90
9951;DHT22;24074;49.254;6.702;2022-12-01T15:35:29;5.10;99.90
9951;DHT22;24074;49.254;6.702;2022-12-01T15:37:54;5.10;99.90
9951;DHT22;24074;49.254;6.702;2022-12-01T15:40:21;5.10;99.90
9951;DHT22;24074;49.254;6.702;2022-12-01T15:43:05;5.10;99.90
9951;DHT22;24074;49.254;6.702;2022-12-01T15:45:45;5.10;99.90
9951;DHT22;24074;49.254;6.702;2022-12-01T15:48:16;5.10;99.90
9951;DHT22;24074;49.254;6.702;2022-12-01T15:51:00;5.00;99.90
9951;DHT22;24074;49.254;6.702;2022-12-01T15:53:29;5.00;99.90
9951;DHT22;24074;49.254;6.702;2022-12-01T15:55:59;5.10;99.90
9951;DHT22;24074;49.254;6.702;2022-12-01T15:58:27;5.00;99.90
9951;DHT22;24074;49.254;6.702;2022-12-01T16:00:59;5.10;99.90
9951;DHT22;24074;49.254;6.702;2022-12-01T16:03:26;5.10;99.90
9951;DHT22;24074;49.254;6.702;2022-12-01T16:05:53;5.00;99.90
9951;DHT22;24074;49.254;6.702;2022-12-01T16:08:26;5.10;99.90
9951;DHT22;24074;49.254;6.702;2022-12-01T16:11:17;5.10;99.90
9951;DHT22;24074;49.254;6.702;2022-12-01T16:14:03;5.00;99.90
9951;DHT22;24074;49.254;6.702;2022-12-01T16:16:44;5.00;99.90
9951;DHT22;24074;49.254;6.702;2022-12-01T16:21:45;5.00;99.90
9951;DHT22;24074;49.254;6.702;2022-12-01T16:24:29;5.00;99.90
9951;DHT22;24074;49.254;6.702;2022-12-01T16:29:21;4.90;99.90
9951;DHT22;24074;49.254;6.702;2022-12-01T16:31:49;5.00;99.90
9951;DHT22;24074;49.254;6.702;2022-12-01T16:34:17;5.00;99.90
9951;DHT22;24074;49.254;6.702;2022-12-01T16:36:44;5.00;99.90
9951;DHT22;24074;49.254;6.702;2022-12-01T16:39:11;4.90;99.90
9951;DHT22;24074;49.254;6.702;2022-12-01T16:41:37;4.90;99.90
9951;DHT22;24074;49.254;6.702;2022-12-01T16:44:05;4.90;99.90
9951;DHT22;24074;49.254;6.702;2022-12-01T16:46:30;4.80;99.90
9951;DHT22;24074;49.254;6.702;2022-12-01T16:48:56;4.80;99.90
9951;DHT22;24074;49.254;6.702;2022-12-01T16:51:22;4.80;99.90
9951;DHT22;24074;49.254;6.702;2022-12-01T16:53:47;4.70;99.90
9951;DHT22;24074;49.254;6.702;2022-12-01T16:56:13;4.70;99.90
9951;DHT22;24074;49.254;6.702;2022-12-01T16:58:39;4.70;99.90
9951;DHT22;24074;49.254;6.702;2022-12-01T17:01:06;4.70;99.90
9951;DHT22;24074;49.254;6.702;2022-12-01T17:03:32;4.70;99.90
9951;DHT22;24074;49.254;6.702;2022-12-01T17:05:59;4.70;99.90
9951;DHT22;24074;49.254;6.702;2022-12-01T17:08:25;4.70;99.90
9951;DHT22;24074;49.254;6.702;2022-12-01T17:10:51;4.70;99.90
9951;DHT22;24074;49.254;6.702;2022-12-01T17:13:18;4.70;99.90
9951;DHT22;24074;49.254;6.702;2022-12-01T17:15:45;4.70;99.90
9951;DHT22;24074;49.254;6.702;2022-12-01T17:18:13;4.70;99.90
9951;DHT22;24074;49.254;6.702;2022-12-01T17:20:39;4.70;99.90
9951;DHT22;24074;49.254;6.702;2022-12-01T17:23:05;4.70;99.90
9951;DHT22;24074;49.254;6.702;2022-12-01T17:25:31;4.70;99.90
9951;DHT22;24074;49.254;6.702;2022-12-01T17:27:57;4.60;99.90
9951;DHT22;24074;49.254;6.702;2022-12-01T17:30:22;4.60;99.90
9951;DHT22;24074;49.254;6.702;2022-12-01T17:32:48;4.70;99.90
9951;DHT22;24074;49.254;6.702;2022-12-01T17:35:14;4.70;99.90
9951;DHT22;24074;49.254;6.702;2022-12-01T17:37:40;4.60;99.90
9951;DHT22;24074;49.254;6.702;2022-12-01T17:40:07;4.60;99.90
9951;DHT22;24074;49.254;6.702;2022-12-01T17:42:34;4.60;99.90
9951;DHT22;24074;49.254;6.702;2022-12-01T17:45:00;4.60;99.90
9951;DHT22;24074;49.254;6.702;2022-12-01T17:47:25;4.60;99.90
9951;DHT22;24074;49.254;6.702;2022-12-01T17:49:52;4.60;99.90
9951;DHT22;24074;49.254;6.702;2022-12-01T17:52:17;4.60;99.90
9951;DHT22;24074;49.254;6.702;2022-12-01T17:54:43;4.60;99.90
9951;DHT22;24074;49.254;6.702;2022-12-01T17:57:09;4.60;99.90
9951;DHT22;24074;49.254;6.702;2022-12-01T17:59:35;4.60;99.90
9951;DHT22;24074;49.254;6.702;2022-12-01T18:02:08;4.60;99.90
9951;DHT22;24074;49.254;6.702;2022-12-01T18:04:35;4.60;99.90
9951;DHT22;24074;49.254;6.702;2022-12-01T18:07:01;4.60;99.90
9951;DHT22;24074;49.254;6.702;2022-12-01T18:09:26;4.60;99.90